Alpine, Tennessee
Current Conditions -  °F | °C
As of 10:15 PM on Sunday 23 Nov 2014 (Local Time) from KSRB Reporting Station
Overcast Overcast  
Wind Chill: 16°   Ceiling: 5000
Heat Index: 16°   Visibility: 10mi
Dew Point: 14°   Wind: 12mph
Humidity: 88%   Direction: 220°SW
Pressure: 29.54"   Gusts: NA
Location:  36.39°N, 85.22°W
Report Text: KSRB 240415Z AUTO 22010KT 10SM FEW028 OVC050 16/14 A2954 RMK
Loading
Personal Weather Stations






























Interactive Weather Map New forecast layout! Learn more

10-Day Weather Forecast

Advertisements
Track Severe Weather on mobile